createdAt,value
2022-12-18T00:02:14.694Z,97344.19
2022-12-18T00:04:41.388Z,97347.63
2022-12-18T00:07:08.046Z,97344.19
2022-12-18T00:09:40.005Z,97349.28
2022-12-18T00:14:45.457Z,97353.72
2022-12-18T00:17:12.269Z,97356.91
2022-12-18T00:19:38.957Z,97351.03
2022-12-18T00:22:07.068Z,97355.78
2022-12-18T00:24:33.813Z,97346.47
2022-12-18T00:27:00.432Z,97346.44
2022-12-18T00:29:27.077Z,97355.94
2022-12-18T00:31:53.749Z,97352.78
2022-12-18T00:34:20.366Z,97349.84
2022-12-18T00:36:48.938Z,97364.25
2022-12-18T00:39:15.610Z,97376.84
2022-12-18T00:42:00.323Z,97373.06
2022-12-18T00:44:26.940Z,97377.25
2022-12-18T00:46:53.513Z,97367.75
2022-12-18T00:49:21.148Z,97373.78
2022-12-18T00:51:48.761Z,97366.84
2022-12-18T00:54:16.011Z,97370.25
2022-12-18T00:56:49.009Z,97369.66
2022-12-18T00:59:17.226Z,97370.19
2022-12-18T01:01:43.956Z,97371.00
2022-12-18T01:04:10.718Z,97373.22
2022-12-18T01:06:37.476Z,97376.66
2022-12-18T01:09:04.192Z,97377.03
2022-12-18T01:11:31.506Z,97378.50
2022-12-18T01:14:01.397Z,97387.81
2022-12-18T01:16:28.081Z,97395.25
2022-12-18T01:18:55.593Z,97392.66
2022-12-18T01:21:24.189Z,97399.25
2022-12-18T01:23:56.044Z,97401.25
2022-12-18T01:26:23.565Z,97395.75
2022-12-18T01:28:50.188Z,97397.44
2022-12-18T01:31:28.557Z,97394.41
2022-12-18T01:33:55.914Z,97386.31
2022-12-18T01:36:24.021Z,97395.66
2022-12-18T01:38:51.704Z,97406.03
2022-12-18T01:41:20.392Z,97398.66
2022-12-18T01:43:58.330Z,97398.66
2022-12-18T01:46:28.893Z,97399.22
2022-12-18T01:48:58.940Z,97397.44
2022-12-18T01:51:27.973Z,97402.63
2022-12-18T01:53:54.617Z,97404.09
2022-12-18T01:56:22.205Z,97412.41
2022-12-18T01:59:07.673Z,97418.38
2022-12-18T02:01:34.506Z,97422.72
2022-12-18T02:04:24.966Z,97421.09
2022-12-18T02:06:59.746Z,97411.28
2022-12-18T02:09:34.935Z,97416.53
2022-12-18T02:12:19.461Z,97413.97
2022-12-18T02:14:52.069Z,97420.59
2022-12-18T02:17:23.442Z,97418.31
2022-12-18T02:20:15.147Z,97416.84
2022-12-18T02:22:51.169Z,97413.47
2022-12-18T02:25:55.405Z,97410.03
2022-12-18T02:28:25.166Z,97413.91
2022-12-18T02:30:54.587Z,97407.16
2022-12-18T02:33:22.584Z,97404.78
2022-12-18T02:35:50.794Z,97397.28
2022-12-18T02:38:18.060Z,97398.81
2022-12-18T02:40:46.228Z,97407.03
2022-12-18T02:43:16.624Z,97415.94
2022-12-18T02:45:50.775Z,97416.72
2022-12-18T02:48:20.159Z,97423.50
2022-12-18T02:50:59.444Z,97417.38
2022-12-18T02:53:33.318Z,97427.25
2022-12-18T02:56:18.251Z,97418.31
2022-12-18T02:59:02.198Z,97429.19
2022-12-18T03:01:34.689Z,97432.50
2022-12-18T03:04:08.298Z,97425.19
2022-12-18T03:06:43.438Z,97417.19
2022-12-18T03:09:25.693Z,97408.41
2022-12-18T03:12:26.084Z,97412.66
2022-12-18T03:15:01.629Z,97413.28
2022-12-18T03:17:31.373Z,97411.22
2022-12-18T03:20:03.395Z,97420.19
2022-12-18T03:22:33.189Z,97414.94
2022-12-18T03:25:03.230Z,97417.94
2022-12-18T03:27:32.411Z,97412.03
2022-12-18T03:30:08.531Z,97414.13
2022-12-18T03:33:04.778Z,97420.56
2022-12-18T03:35:37.272Z,97418.91
2022-12-18T03:38:04.059Z,97422.94
2022-12-18T03:40:48.673Z,97423.81
2022-12-18T03:43:28.802Z,97427.34
2022-12-18T03:46:23.651Z,97431.28
2022-12-18T03:48:57.503Z,97427.19
2022-12-18T03:51:47.703Z,97426.59
2022-12-18T03:54:15.298Z,97422.31
2022-12-18T03:56:48.084Z,97422.31
2022-12-18T03:59:17.964Z,97432.25
2022-12-18T04:01:48.843Z,97430.91
2022-12-18T04:04:17.673Z,97424.63
2022-12-18T04:06:46.389Z,97430.34
2022-12-18T04:09:13.985Z,97431.50
2022-12-18T04:11:43.200Z,97428.97
2022-12-18T04:14:11.939Z,97432.75
2022-12-18T04:16:42.637Z,97433.28
2022-12-18T04:19:09.279Z,97423.53
2022-12-18T04:21:35.859Z,97426.34
2022-12-18T04:24:02.623Z,97421.97
2022-12-18T04:26:29.232Z,97430.00
2022-12-18T04:28:55.845Z,97425.13
2022-12-18T04:31:22.830Z,97436.81
2022-12-18T04:33:49.584Z,97440.25
2022-12-18T04:36:16.218Z,97439.53
2022-12-18T04:38:42.903Z,97441.22
2022-12-18T04:41:09.542Z,97442.25
2022-12-18T04:43:36.272Z,97440.19
2022-12-18T04:46:07.589Z,97443.38
2022-12-18T04:48:34.844Z,97446.25
2022-12-18T04:51:01.476Z,97440.09
2022-12-18T04:53:28.088Z,97443.59
2022-12-18T04:56:23.976Z,97443.38
2022-12-18T04:58:50.808Z,97433.75
2022-12-18T05:01:18.815Z,97434.50
2022-12-18T05:03:46.144Z,97443.56
2022-12-18T05:06:12.884Z,97443.91
2022-12-18T05:08:39.557Z,97444.81
2022-12-18T05:11:12.102Z,97435.94
2022-12-18T05:13:39.535Z,97442.63
2022-12-18T05:16:07.101Z,97442.38
2022-12-18T05:18:34.337Z,97439.72
2022-12-18T05:21:01.049Z,97439.78
2022-12-18T05:23:28.398Z,97451.09
2022-12-18T05:25:55.953Z,97450.34
2022-12-18T05:28:23.828Z,97456.69
2022-12-18T05:30:55.411Z,97446.34
2022-12-18T05:33:23.353Z,97449.72
2022-12-18T05:35:54.309Z,97455.28
2022-12-18T05:38:21.927Z,97458.75
2022-12-18T05:40:49.330Z,97461.69
2022-12-18T05:43:20.995Z,97468.44
2022-12-18T05:45:48.877Z,97464.53
2022-12-18T05:48:16.204Z,97470.25
2022-12-18T05:50:46.522Z,97478.31
2022-12-18T05:53:14.435Z,97487.88
2022-12-18T05:55:42.429Z,97499.22
2022-12-18T05:58:10.405Z,97506.13
2022-12-18T06:00:41.914Z,97505.03
2022-12-18T06:03:09.943Z,97503.38
2022-12-18T06:05:39.473Z,97503.19
2022-12-18T06:08:06.754Z,97494.22
2022-12-18T06:10:33.911Z,97488.31
2022-12-18T06:13:01.420Z,97492.44
2022-12-18T06:15:28.116Z,97504.75
2022-12-18T06:17:54.752Z,97508.53
2022-12-18T06:20:21.621Z,97517.47
2022-12-18T06:22:48.234Z,97521.72
2022-12-18T06:25:15.104Z,97518.34
2022-12-18T06:27:42.238Z,97523.00
2022-12-18T06:30:10.543Z,97515.19
2022-12-18T06:32:37.203Z,97508.41
2022-12-18T06:35:04.895Z,97513.75
2022-12-18T06:37:32.564Z,97510.47
2022-12-18T06:39:59.469Z,97517.56
2022-12-18T06:42:26.128Z,97514.38
2022-12-18T06:44:52.878Z,97524.06
2022-12-18T06:47:19.834Z,97522.91
2022-12-18T06:49:46.498Z,97529.63
2022-12-18T06:52:13.080Z,97529.81
2022-12-18T06:54:39.692Z,97528.66
2022-12-18T06:57:06.264Z,97529.50
2022-12-18T06:59:32.865Z,97534.38
2022-12-18T07:01:59.690Z,97536.38
2022-12-18T07:04:30.797Z,97545.66
2022-12-18T07:06:58.341Z,97546.38
2022-12-18T07:09:25.410Z,97558.38
2022-12-18T07:11:52.848Z,97555.41
2022-12-18T07:14:19.466Z,97552.78
2022-12-18T07:16:46.198Z,97547.38
2022-12-18T07:19:12.827Z,97538.69
2022-12-18T07:21:39.402Z,97542.38
2022-12-18T07:24:06.692Z,97540.84
2022-12-18T07:26:33.347Z,97540.16
2022-12-18T07:28:59.946Z,97553.09
2022-12-18T07:31:27.445Z,97551.19
2022-12-18T07:33:54.608Z,97556.06
2022-12-18T07:36:21.474Z,97555.34
2022-12-18T07:38:49.288Z,97555.88
2022-12-18T07:41:16.433Z,97564.31
2022-12-18T07:43:43.621Z,97561.13
2022-12-18T07:46:13.446Z,97566.28
2022-12-18T07:48:41.524Z,97564.44
2022-12-18T07:51:08.754Z,97557.81
2022-12-18T07:53:37.052Z,97568.53
2022-12-18T07:58:56.914Z,97572.41
2022-12-18T08:01:23.722Z,97573.41
2022-12-18T08:03:52.125Z,97568.41
2022-12-18T08:06:19.218Z,97573.66
2022-12-18T08:08:46.007Z,97563.22
2022-12-18T08:11:12.622Z,97576.13
2022-12-18T08:13:39.482Z,97575.97
2022-12-18T08:16:08.141Z,97577.78
2022-12-18T08:18:37.074Z,97579.00
2022-12-18T08:21:16.096Z,97572.84
2022-12-18T08:23:43.847Z,97581.28
2022-12-18T08:26:12.248Z,97593.91
2022-12-18T08:28:39.289Z,97593.59
2022-12-18T08:31:06.479Z,97598.06
2022-12-18T08:33:34.011Z,97599.28
2022-12-18T08:36:01.394Z,97588.75
2022-12-18T08:38:28.306Z,97595.28
2022-12-18T08:41:01.916Z,97590.69
2022-12-18T08:43:47.472Z,97579.81
2022-12-18T08:46:18.039Z,97572.22
2022-12-18T08:48:44.955Z,97576.88
2022-12-18T08:51:11.880Z,97581.38
2022-12-18T08:53:39.032Z,97579.84
2022-12-18T08:56:06.371Z,97572.22
2022-12-18T08:58:32.995Z,97578.66
2022-12-18T09:01:08.217Z,97580.53
2022-12-18T09:03:34.946Z,97587.91
2022-12-18T09:06:01.956Z,97598.25
2022-12-18T09:08:29.177Z,97582.03
2022-12-18T09:10:56.226Z,97593.63
2022-12-18T09:13:23.348Z,97585.00
2022-12-18T09:15:52.977Z,97587.97
2022-12-18T09:18:21.638Z,97591.56
2022-12-18T09:20:48.569Z,97594.88
2022-12-18T09:23:15.535Z,97596.31
2022-12-18T09:25:42.236Z,97585.91
2022-12-18T09:28:18.310Z,97592.78
2022-12-18T09:30:48.192Z,97592.66
2022-12-18T09:33:14.901Z,97600.56
2022-12-18T09:35:43.493Z,97601.78
2022-12-18T09:38:13.641Z,97607.28
2022-12-18T09:40:56.947Z,97612.53
2022-12-18T09:43:26.564Z,97607.25
2022-12-18T09:45:59.332Z,97606.19
2022-12-18T09:48:48.760Z,97609.34
2022-12-18T09:51:23.806Z,97612.66
2022-12-18T09:53:59.480Z,97614.22
2022-12-18T09:56:29.363Z,97613.78
2022-12-18T09:59:04.632Z,97618.63
2022-12-18T10:01:39.140Z,97610.75
2022-12-18T10:04:10.756Z,97610.00
2022-12-18T10:06:52.690Z,97600.22
2022-12-18T10:09:28.282Z,97607.00
2022-12-18T10:12:00.814Z,97601.38
2022-12-18T10:14:48.129Z,97597.03
2022-12-18T10:18:02.886Z,97596.44
2022-12-18T10:20:43.106Z,97588.50
2022-12-18T10:23:12.462Z,97583.13
2022-12-18T10:26:06.082Z,97581.66
2022-12-18T10:28:35.003Z,97581.63
2022-12-18T10:31:01.854Z,97571.72
2022-12-18T10:33:33.602Z,97572.06
2022-12-18T10:36:01.259Z,97564.91
2022-12-18T10:38:30.271Z,97564.22
2022-12-18T10:40:56.835Z,97553.69
2022-12-18T10:43:36.602Z,97553.91
2022-12-18T10:46:06.891Z,97552.84
2022-12-18T10:48:37.329Z,97551.06
2022-12-18T10:51:12.876Z,97553.84
2022-12-18T10:53:42.306Z,97552.84
2022-12-18T10:56:09.887Z,97551.13
2022-12-18T10:58:39.578Z,97552.75
2022-12-18T11:01:17.838Z,97557.31
2022-12-18T11:03:47.298Z,97556.31
2022-12-18T11:06:17.357Z,97545.88
2022-12-18T11:08:57.738Z,97544.59
2022-12-18T11:11:25.528Z,97549.69
2022-12-18T11:14:13.479Z,97535.81
2022-12-18T11:17:24.448Z,97530.91
2022-12-18T11:19:40.989Z,97533.53
2022-12-18T11:22:29.742Z,97536.22
2022-12-18T11:27:56.945Z,97528.41
2022-12-18T11:30:23.537Z,97533.63
2022-12-18T11:33:02.142Z,97526.88
2022-12-18T11:35:34.508Z,97539.25
2022-12-18T11:38:06.118Z,97533.63
2022-12-18T11:40:41.255Z,97538.09
2022-12-18T11:43:15.932Z,97532.44
2022-12-18T11:45:53.428Z,97534.28
2022-12-18T11:48:28.645Z,97524.28
2022-12-18T11:50:57.765Z,97523.38
2022-12-18T11:53:26.502Z,97519.97
2022-12-18T11:56:28.700Z,97517.91
2022-12-18T11:59:17.669Z,97518.75
2022-12-18T12:01:52.032Z,97529.09
2022-12-18T12:04:36.411Z,97535.69
2022-12-18T12:07:22.425Z,97525.66
2022-12-18T12:09:49.003Z,97522.75
2022-12-18T12:12:22.653Z,97532.44
2022-12-18T12:15:14.174Z,97522.44
2022-12-18T12:18:00.282Z,97539.22
2022-12-18T12:20:58.736Z,97529.38
2022-12-18T12:23:53.281Z,97520.00
2022-12-18T12:26:45.910Z,97528.09
2022-12-18T12:29:28.440Z,97530.81
2022-12-18T12:32:43.607Z,97519.84
2022-12-18T12:35:21.197Z,97515.00
2022-12-18T12:38:20.838Z,97522.72
2022-12-18T12:41:03.255Z,97513.09
2022-12-18T12:43:50.948Z,97517.78
2022-12-18T12:46:22.351Z,97512.19
2022-12-18T12:49:00.831Z,97517.84
2022-12-18T12:51:35.017Z,97513.06
2022-12-18T12:54:04.692Z,97515.47
2022-12-18T12:56:44.677Z,97519.19
2022-12-18T12:59:27.291Z,97523.66
2022-12-18T13:02:05.549Z,97523.28
2022-12-18T13:04:51.017Z,97535.97
2022-12-18T13:07:29.794Z,97544.03
2022-12-18T13:10:17.872Z,97536.00
2022-12-18T13:12:57.907Z,97540.31
2022-12-18T13:15:49.428Z,97529.59
2022-12-18T13:18:23.722Z,97529.22
2022-12-18T13:21:02.908Z,97528.22
2022-12-18T13:23:41.503Z,97532.22
2022-12-18T13:26:11.858Z,97522.09
2022-12-18T13:28:47.296Z,97524.44
2022-12-18T13:31:42.171Z,97524.03
2022-12-18T13:37:40.819Z,97522.91
2022-12-18T13:40:57.150Z,97528.09
2022-12-18T13:43:25.660Z,97523.72
2022-12-18T13:46:05.361Z,97532.00
2022-12-18T13:48:37.018Z,97527.06
2022-12-18T13:51:09.727Z,97531.47
2022-12-18T13:53:43.511Z,97542.63
2022-12-18T13:56:10.529Z,97536.25
2022-12-18T13:58:37.093Z,97536.13
2022-12-18T14:01:05.743Z,97530.63
2022-12-18T14:03:32.631Z,97540.59
2022-12-18T14:06:03.890Z,97543.75
2022-12-18T14:08:36.554Z,97542.00
2022-12-18T14:11:06.292Z,97540.88
2022-12-18T14:13:42.205Z,97538.75
2022-12-18T14:16:14.997Z,97547.38
2022-12-18T14:18:53.817Z,97539.41
2022-12-18T14:21:30.598Z,97531.47
2022-12-18T14:24:06.103Z,97535.84
2022-12-18T14:26:34.265Z,97533.59
2022-12-18T14:29:19.683Z,97539.41
2022-12-18T14:32:18.722Z,97539.72
2022-12-18T14:34:55.113Z,97538.25
2022-12-18T14:37:25.985Z,97533.53
2022-12-18T14:40:11.095Z,97535.81
2022-12-18T14:42:38.759Z,97528.78
2022-12-18T14:45:40.930Z,97542.13
2022-12-18T14:48:19.699Z,97542.22
2022-12-18T14:51:01.037Z,97540.81
2022-12-18T14:53:37.358Z,97543.97
2022-12-18T14:56:14.612Z,97540.16
2022-12-18T14:58:46.812Z,97552.34
2022-12-18T15:01:57.534Z,97556.03
2022-12-18T15:04:31.396Z,97554.47
2022-12-18T15:07:07.846Z,97554.81
2022-12-18T15:09:34.486Z,97555.09
2022-12-18T15:12:02.973Z,97564.53
2022-12-18T15:14:41.345Z,97564.88
2022-12-18T15:17:19.730Z,97560.41
2022-12-18T15:19:48.038Z,97565.97
2022-12-18T15:22:36.235Z,97567.56
2022-12-18T15:25:23.915Z,97560.09
2022-12-18T15:27:50.577Z,97567.28
2022-12-18T15:30:22.936Z,97557.41
2022-12-18T15:32:50.551Z,97567.50
2022-12-18T15:35:17.122Z,97568.22
2022-12-18T15:37:44.069Z,97562.94
2022-12-18T15:40:18.816Z,97561.81
2022-12-18T15:43:06.933Z,97574.28
2022-12-18T15:45:34.028Z,97565.53
2022-12-18T15:48:01.069Z,97565.66
2022-12-18T15:50:27.715Z,97557.72
2022-12-18T15:52:56.493Z,97561.31
2022-12-18T15:55:43.555Z,97563.28
2022-12-18T15:58:12.374Z,97556.94
2022-12-18T16:00:41.217Z,97556.13
2022-12-18T16:03:08.487Z,97554.66
2022-12-18T16:05:35.321Z,97561.66
2022-12-18T16:08:01.957Z,97556.75
2022-12-18T16:10:28.730Z,97559.72
2022-12-18T16:12:55.622Z,97550.03
2022-12-18T16:15:24.743Z,97545.91
2022-12-18T16:17:52.941Z,97543.44
2022-12-18T16:20:23.436Z,97547.97
2022-12-18T16:22:50.632Z,97550.13
2022-12-18T16:25:26.959Z,97554.28
2022-12-18T16:27:56.080Z,97551.38
2022-12-18T16:30:28.832Z,97545.94
2022-12-18T16:32:59.673Z,97544.13
2022-12-18T16:35:27.555Z,97548.56
2022-12-18T16:37:54.298Z,97547.47
2022-12-18T16:40:21.256Z,97549.91
2022-12-18T16:42:47.978Z,97551.13
2022-12-18T16:45:18.277Z,97549.22
2022-12-18T16:47:45.307Z,97547.59
2022-12-18T16:50:12.486Z,97554.81
2022-12-18T16:52:42.307Z,97546.56
2022-12-18T16:55:09.437Z,97550.81
2022-12-18T16:57:36.179Z,97549.44
2022-12-18T17:00:05.677Z,97549.78
2022-12-18T17:02:33.643Z,97545.16
2022-12-18T17:05:00.931Z,97546.16
2022-12-18T17:07:28.707Z,97539.44
2022-12-18T17:09:55.975Z,97545.00
2022-12-18T17:12:28.939Z,97550.03
2022-12-18T17:14:55.648Z,97549.19
2022-12-18T17:17:23.321Z,97554.25
2022-12-18T17:19:52.260Z,97553.91
2022-12-18T17:22:20.043Z,97554.59
2022-12-18T17:24:49.935Z,97556.03
2022-12-18T17:27:17.002Z,97552.44
2022-12-18T17:29:48.019Z,97550.59
2022-12-18T17:32:16.396Z,97555.06
2022-12-18T17:34:45.462Z,97550.41
2022-12-18T17:37:12.665Z,97546.97
2022-12-18T17:39:41.955Z,97538.97
2022-12-18T17:42:15.303Z,97541.44
2022-12-18T17:44:42.719Z,97542.69
2022-12-18T17:47:12.796Z,97551.53
2022-12-18T17:49:43.245Z,97549.22
2022-12-18T17:52:10.523Z,97548.31
2022-12-18T17:54:39.967Z,97549.53
2022-12-18T17:57:08.248Z,97559.88
2022-12-18T17:59:34.970Z,97561.09
2022-12-18T18:02:01.653Z,97548.97
2022-12-18T18:04:28.443Z,97558.47
2022-12-18T18:06:55.051Z,97558.03
2022-12-18T18:09:21.706Z,97564.22
2022-12-18T18:12:06.549Z,97550.63
2022-12-18T18:14:33.574Z,97547.59
2022-12-18T18:17:04.679Z,97554.00
2022-12-18T18:19:33.002Z,97549.47
2022-12-18T18:21:59.694Z,97548.50
2022-12-18T18:24:26.395Z,97553.41
2022-12-18T18:26:53.356Z,97551.13
2022-12-18T18:29:25.404Z,97555.19
2022-12-18T18:31:54.071Z,97560.75
2022-12-18T18:34:23.700Z,97555.03
2022-12-18T18:36:50.737Z,97547.75
2022-12-18T18:39:18.278Z,97547.69
2022-12-18T18:41:45.427Z,97544.59
2022-12-18T18:44:14.725Z,97545.31
2022-12-18T18:46:41.559Z,97538.13
2022-12-18T18:49:08.202Z,97543.34
2022-12-18T18:51:35.485Z,97544.38
2022-12-18T18:54:02.601Z,97544.00
2022-12-18T18:59:16.693Z,97539.22
2022-12-18T19:01:43.563Z,97535.34
2022-12-18T19:04:10.349Z,97536.78
2022-12-18T19:06:36.937Z,97542.66
2022-12-18T19:09:05.041Z,97546.38
2022-12-18T19:11:51.076Z,97530.44
2022-12-18T19:14:18.070Z,97527.56
2022-12-18T19:16:45.530Z,97530.00
2022-12-18T19:19:13.062Z,97531.47
2022-12-18T19:21:40.937Z,97528.34
2022-12-18T19:24:07.964Z,97521.72
2022-12-18T19:26:36.406Z,97523.81
2022-12-18T19:29:08.254Z,97533.13
2022-12-18T19:31:37.039Z,97524.25
2022-12-18T19:34:06.789Z,97533.97
2022-12-18T19:36:36.828Z,97535.09
2022-12-18T19:39:13.214Z,97531.44
2022-12-18T19:41:42.273Z,97519.50
2022-12-18T19:44:11.966Z,97521.81
2022-12-18T19:46:41.699Z,97522.06
2022-12-18T19:49:13.660Z,97516.38
2022-12-18T19:51:44.364Z,97512.28
2022-12-18T19:54:16.774Z,97517.41
2022-12-18T19:56:44.630Z,97523.47
2022-12-18T19:59:11.253Z,97521.19
2022-12-18T20:01:38.120Z,97516.09
2022-12-18T20:04:05.162Z,97509.06
2022-12-18T20:06:46.370Z,97507.94
2022-12-18T20:09:12.987Z,97512.03
2022-12-18T20:11:41.885Z,97513.81
2022-12-18T20:14:11.113Z,97506.72
2022-12-18T20:16:38.305Z,97510.56
2022-12-18T20:19:05.505Z,97502.22
2022-12-18T20:21:32.445Z,97501.16
2022-12-18T20:24:00.223Z,97498.09
2022-12-18T20:26:27.501Z,97498.53
2022-12-18T20:28:55.580Z,97489.59
2022-12-18T20:31:23.186Z,97496.56
2022-12-18T20:33:52.249Z,97483.72
2022-12-18T20:36:25.877Z,97492.59
2022-12-18T20:38:57.042Z,97487.75
2022-12-18T20:41:24.921Z,97492.47
2022-12-18T20:43:51.609Z,97492.13
2022-12-18T20:46:18.766Z,97495.81
2022-12-18T20:48:46.174Z,97486.25
2022-12-18T20:51:16.833Z,97488.38
2022-12-18T20:53:44.804Z,97477.69
2022-12-18T20:56:18.907Z,97475.41
2022-12-18T20:58:49.809Z,97472.50
2022-12-18T21:01:19.801Z,97473.06
2022-12-18T21:03:48.112Z,97467.88
2022-12-18T21:06:17.271Z,97464.22
2022-12-18T21:08:44.705Z,97465.91
2022-12-18T21:11:35.405Z,97469.25
2022-12-18T21:14:08.971Z,97469.56
2022-12-18T21:16:35.727Z,97473.88
2022-12-18T21:19:02.515Z,97466.25
2022-12-18T21:21:29.284Z,97471.69
2022-12-18T21:24:01.380Z,97476.09
2022-12-18T21:26:28.751Z,97472.44
2022-12-18T21:29:00.309Z,97469.84
2022-12-18T21:31:29.926Z,97468.97
2022-12-18T21:34:01.829Z,97463.88
2022-12-18T21:36:30.372Z,97471.16
2022-12-18T21:38:58.341Z,97471.69
2022-12-18T21:41:44.232Z,97464.56
2022-12-18T21:44:16.280Z,97457.31
2022-12-18T21:46:46.344Z,97462.97
2022-12-18T21:49:22.876Z,97464.28
2022-12-18T21:51:51.779Z,97466.16
2022-12-18T21:54:19.395Z,97458.75
2022-12-18T21:56:55.840Z,97461.84
2022-12-18T21:59:25.194Z,97459.22
2022-12-18T22:01:54.134Z,97460.63
2022-12-18T22:04:21.726Z,97458.19
2022-12-18T22:06:49.379Z,97475.88
2022-12-18T22:09:18.809Z,97477.81
2022-12-18T22:11:46.098Z,97469.72
2022-12-18T22:14:14.763Z,97477.59
2022-12-18T22:16:42.565Z,97471.16
2022-12-18T22:19:11.426Z,97467.16
2022-12-18T22:21:41.585Z,97461.00
2022-12-18T22:24:13.327Z,97464.75
2022-12-18T22:26:40.530Z,97462.38
2022-12-18T22:29:26.538Z,97467.09
2022-12-18T22:31:53.154Z,97459.13
2022-12-18T22:34:22.986Z,97460.72
2022-12-18T22:36:50.817Z,97458.81
2022-12-18T22:39:26.261Z,97455.53
2022-12-18T22:41:55.667Z,97448.31
2022-12-18T22:44:25.222Z,97449.59
2022-12-18T22:46:59.932Z,97442.38
2022-12-18T22:49:35.083Z,97433.91
2022-12-18T22:52:06.498Z,97423.16
2022-12-18T22:54:33.106Z,97433.41
2022-12-18T22:56:59.681Z,97429.81
2022-12-18T22:59:26.370Z,97423.03
2022-12-18T23:01:58.721Z,97429.50
2022-12-18T23:04:29.108Z,97425.31
2022-12-18T23:07:04.038Z,97422.84
2022-12-18T23:09:30.675Z,97430.63
2022-12-18T23:11:57.805Z,97427.28
2022-12-18T23:14:24.425Z,97418.34
2022-12-18T23:16:52.285Z,97422.66
2022-12-18T23:19:20.064Z,97421.75
2022-12-18T23:21:46.706Z,97418.69
2022-12-18T23:24:13.696Z,97436.28
2022-12-18T23:26:40.546Z,97423.53
2022-12-18T23:29:08.025Z,97418.28
2022-12-18T23:31:36.870Z,97416.38
2022-12-18T23:34:05.535Z,97407.06
2022-12-18T23:36:35.905Z,97405.56
2022-12-18T23:39:25.810Z,97416.13
2022-12-18T23:41:58.083Z,97418.44
2022-12-18T23:44:25.041Z,97422.41
2022-12-18T23:46:51.839Z,97403.22
2022-12-18T23:49:18.541Z,97407.09
2022-12-18T23:51:45.188Z,97401.75
2022-12-18T23:54:11.775Z,97395.25
2022-12-18T23:56:38.388Z,97399.38
2022-12-18T23:59:05.063Z,97388.97
